sensor_id;sensor_type;location;lat;lon;timestamp;pressure;altitude;pressure_sealevel;temperature;humidity
55757;BME280;41676;44.610;44.078;2023-10-13T00:04:21;101215.44;;;0.53;83.87
55757;BME280;41676;44.610;44.078;2023-10-13T00:09:24;101223.03;;;0.58;83.79
55757;BME280;41676;44.610;44.078;2023-10-13T00:14:25;101237.47;;;0.65;84.47
55757;BME280;41676;44.610;44.078;2023-10-13T00:19:37;101235.19;;;0.59;84.50
55757;BME280;41676;44.610;44.078;2023-10-13T00:24:40;101212.66;;;0.56;84.88
55757;BME280;41676;44.610;44.078;2023-10-13T00:29:48;101224.72;;;0.59;84.55
55757;BME280;41676;44.610;44.078;2023-10-13T00:34:51;101179.31;;;0.28;84.13
55757;BME280;41676;44.610;44.078;2023-10-13T00:39:56;101194.16;;;0.43;83.94
55757;BME280;41676;44.610;44.078;2023-10-13T00:44:58;101165.13;;;0.16;83.82
55757;BME280;41676;44.610;44.078;2023-10-13T00:50:01;101221.66;;;0.51;83.95
55757;BME280;41676;44.610;44.078;2023-10-13T00:55:02;101216.75;;;0.44;83.51
55757;BME280;41676;44.610;44.078;2023-10-13T01:00:05;101215.09;;;0.43;83.96
55757;BME280;41676;44.610;44.078;2023-10-13T01:05:19;101216.41;;;0.35;84.28
55757;BME280;41676;44.610;44.078;2023-10-13T01:10:21;101202.47;;;0.18;84.15
55757;BME280;41676;44.610;44.078;2023-10-13T01:15:26;101204.38;;;0.15;83.92
55757;BME280;41676;44.610;44.078;2023-10-13T01:20:30;101199.41;;;0.10;83.92
55757;BME280;41676;44.610;44.078;2023-10-13T01:25:30;101208.56;;;0.02;83.27
55757;BME280;41676;44.610;44.078;2023-10-13T01:30:31;101220.22;;;0.12;83.81
55757;BME280;41676;44.610;44.078;2023-10-13T01:35:32;101194.22;;;-0.07;84.29
55757;BME280;41676;44.610;44.078;2023-10-13T01:40:37;101216.03;;;0.09;83.87
55757;BME280;41676;44.610;44.078;2023-10-13T01:45:38;101197.34;;;-0.01;84.83
55757;BME280;41676;44.610;44.078;2023-10-13T01:50:50;101207.47;;;0.06;84.71
55757;BME280;41676;44.610;44.078;2023-10-13T01:56:00;101205.56;;;0.09;84.09
55757;BME280;41676;44.610;44.078;2023-10-13T02:01:06;101187.84;;;-0.02;84.50
55757;BME280;41676;44.610;44.078;2023-10-13T02:06:08;101181.00;;;-0.21;83.60
55757;BME280;41676;44.610;44.078;2023-10-13T02:11:11;101184.19;;;-0.32;83.54
55757;BME280;41676;44.610;44.078;2023-10-13T02:16:12;101194.63;;;-0.32;83.63
55757;BME280;41676;44.610;44.078;2023-10-13T02:21:13;101197.44;;;-0.37;84.01
55757;BME280;41676;44.610;44.078;2023-10-13T02:26:14;101194.31;;;-0.43;83.73
55757;BME280;41676;44.610;44.078;2023-10-13T02:31:17;101141.19;;;-0.77;83.98
55757;BME280;41676;44.610;44.078;2023-10-13T02:36:20;101140.47;;;-0.81;83.54
55757;BME280;41676;44.610;44.078;2023-10-13T02:41:36;101153.00;;;-0.70;83.71
55757;BME280;41676;44.610;44.078;2023-10-13T02:46:40;101174.19;;;-0.59;83.15
55757;BME280;41676;44.610;44.078;2023-10-13T02:51:41;101121.50;;;-1.02;82.81
55757;BME280;41676;44.610;44.078;2023-10-13T02:56:45;101139.63;;;-0.81;83.65
55757;BME280;41676;44.610;44.078;2023-10-13T03:02:07;101152.53;;;-0.78;83.84
55757;BME280;41676;44.610;44.078;2023-10-13T03:07:27;101170.94;;;-0.81;83.02
55757;BME280;41676;44.610;44.078;2023-10-13T03:12:30;101170.34;;;-0.86;83.58
55757;BME280;41676;44.610;44.078;2023-10-13T03:17:33;101171.53;;;-0.94;83.33
55757;BME280;41676;44.610;44.078;2023-10-13T03:22:34;101167.41;;;-0.98;83.23
55757;BME280;41676;44.610;44.078;2023-10-13T03:27:35;101168.09;;;-0.94;83.18
55757;BME280;41676;44.610;44.078;2023-10-13T03:32:59;101093.28;;;-1.28;83.52
55757;BME280;41676;44.610;44.078;2023-10-13T03:38:01;101107.63;;;-1.20;83.23
55757;BME280;41676;44.610;44.078;2023-10-13T03:43:02;101146.72;;;-0.83;83.48
55757;BME280;41676;44.610;44.078;2023-10-13T03:48:13;101151.66;;;-0.60;83.51
55757;BME280;41676;44.610;44.078;2023-10-13T03:53:27;101129.94;;;-0.27;83.70
55757;BME280;41676;44.610;44.078;2023-10-13T03:58:36;101170.25;;;0.18;83.94
55757;BME280;41676;44.610;44.078;2023-10-13T04:03:39;101156.28;;;0.19;82.94
55757;BME280;41676;44.610;44.078;2023-10-13T04:08:57;101098.28;;;-0.21;83.00
55757;BME280;41676;44.610;44.078;2023-10-13T04:14:16;101117.09;;;0.19;82.75
55757;BME280;41676;44.610;44.078;2023-10-13T04:19:43;101161.13;;;0.74;83.02
55757;BME280;41676;44.610;44.078;2023-10-13T04:25:02;101126.22;;;0.75;82.59
55757;BME280;41676;44.610;44.078;2023-10-13T04:30:23;101179.31;;;1.23;82.58
55757;BME280;41676;44.610;44.078;2023-10-13T04:35:38;101170.53;;;1.24;82.40
55757;BME280;41676;44.610;44.078;2023-10-13T04:40:48;101154.94;;;1.37;81.85
55757;BME280;41676;44.610;44.078;2023-10-13T04:46:00;101178.91;;;1.75;82.31
55757;BME280;41676;44.610;44.078;2023-10-13T04:51:15;101174.06;;;1.98;82.14
55757;BME280;41676;44.610;44.078;2023-10-13T04:56:34;101185.03;;;2.19;81.72
55757;BME280;41676;44.610;44.078;2023-10-13T05:01:43;101182.19;;;2.36;81.69
55757;BME280;41676;44.610;44.078;2023-10-13T05:07:07;101174.88;;;2.56;82.86
55757;BME280;41676;44.610;44.078;2023-10-13T05:12:26;101112.69;;;2.58;83.03
55757;BME280;41676;44.610;44.078;2023-10-13T05:17:45;101164.38;;;3.24;82.66
55757;BME280;41676;44.610;44.078;2023-10-13T05:23:04;101124.81;;;3.40;81.98
55757;BME280;41676;44.610;44.078;2023-10-13T05:28:24;101169.00;;;3.99;81.98
55757;BME280;41676;44.610;44.078;2023-10-13T05:33:43;101153.75;;;4.17;81.63
55757;BME280;41676;44.610;44.078;2023-10-13T05:39:03;101151.44;;;4.25;81.16
55757;BME280;41676;44.610;44.078;2023-10-13T05:44:21;101089.63;;;4.30;80.23
55757;BME280;41676;44.610;44.078;2023-10-13T05:49:37;101096.66;;;4.43;79.80
55757;BME280;41676;44.610;44.078;2023-10-13T05:54:50;101055.88;;;4.37;79.86
55757;BME280;41676;44.610;44.078;2023-10-13T06:00:09;101146.25;;;5.56;78.46
55757;BME280;41676;44.610;44.078;2023-10-13T06:05:29;101148.78;;;6.04;77.38
55757;BME280;41676;44.610;44.078;2023-10-13T06:10:49;101115.06;;;6.42;75.77
55757;BME280;41676;44.610;44.078;2023-10-13T06:16:09;101099.88;;;6.66;75.38
55757;BME280;41676;44.610;44.078;2023-10-13T06:21:29;101111.38;;;7.08;74.30
55757;BME280;41676;44.610;44.078;2023-10-13T06:26:48;101095.09;;;7.24;74.04
55757;BME280;41676;44.610;44.078;2023-10-13T06:32:07;101090.69;;;7.76;72.89
55757;BME280;41676;44.610;44.078;2023-10-13T06:37:12;101097.28;;;8.22;71.43
55757;BME280;41676;44.610;44.078;2023-10-13T06:42:31;101096.88;;;8.67;70.66
55757;BME280;41676;44.610;44.078;2023-10-13T06:47:35;101083.53;;;8.88;70.09
55757;BME280;41676;44.610;44.078;2023-10-13T06:52:43;101082.41;;;9.10;70.19
55757;BME280;41676;44.610;44.078;2023-10-13T06:57:44;101065.03;;;9.45;69.40
55757;BME280;41676;44.610;44.078;2023-10-13T07:02:47;100993.38;;;9.27;68.80
55757;BME280;41676;44.610;44.078;2023-10-13T07:07:47;101059.19;;;9.89;68.32
55757;BME280;41676;44.610;44.078;2023-10-13T07:12:58;101060.38;;;10.32;67.32
55757;BME280;41676;44.610;44.078;2023-10-13T07:18:00;101060.81;;;10.55;66.53
55757;BME280;41676;44.610;44.078;2023-10-13T07:23:06;101051.03;;;10.73;66.48
55757;BME280;41676;44.610;44.078;2023-10-13T07:28:08;100979.91;;;10.49;65.86
55757;BME280;41676;44.610;44.078;2023-10-13T07:33:09;100983.16;;;10.79;65.63
55757;BME280;41676;44.610;44.078;2023-10-13T07:38:13;101032.66;;;11.24;64.64
55757;BME280;41676;44.610;44.078;2023-10-13T07:43:14;100953.22;;;10.77;64.90
55757;BME280;41676;44.610;44.078;2023-10-13T07:48:21;101018.38;;;11.51;64.60
55757;BME280;41676;44.610;44.078;2023-10-13T07:53:22;100947.66;;;11.74;63.45
55757;BME280;41676;44.610;44.078;2023-10-13T07:58:28;101011.44;;;12.34;62.22
55757;BME280;41676;44.610;44.078;2023-10-13T08:03:36;101015.44;;;12.47;60.92
55757;BME280;41676;44.610;44.078;2023-10-13T08:08:46;100948.63;;;12.16;60.98
55757;BME280;41676;44.610;44.078;2023-10-13T08:13:54;100999.31;;;12.65;60.33
55757;BME280;41676;44.610;44.078;2023-10-13T08:18:56;100994.16;;;12.79;59.42
55757;BME280;41676;44.610;44.078;2023-10-13T08:23:57;100980.34;;;12.84;59.41
55757;BME280;41676;44.610;44.078;2023-10-13T08:28:59;100964.66;;;12.97;58.60
55757;BME280;41676;44.610;44.078;2023-10-13T08:34:18;100977.13;;;13.38;57.98
55757;BME280;41676;44.610;44.078;2023-10-13T08:39:24;100955.69;;;13.62;57.39
55757;BME280;41676;44.610;44.078;2023-10-13T08:44:44;100947.19;;;13.98;55.72
55757;BME280;41676;44.610;44.078;2023-10-13T08:49:53;100948.44;;;14.10;55.33
55757;BME280;41676;44.610;44.078;2023-10-13T08:55:11;100948.84;;;14.53;54.80
55757;BME280;41676;44.610;44.078;2023-10-13T09:00:31;100878.91;;;14.19;53.48
55757;BME280;41676;44.610;44.078;2023-10-13T09:05:56;100865.72;;;14.63;53.71
55757;BME280;41676;44.610;44.078;2023-10-13T09:11:06;100896.03;;;15.08;51.91
55757;BME280;41676;44.610;44.078;2023-10-13T09:16:14;100858.44;;;15.16;50.35
55757;BME280;41676;44.610;44.078;2023-10-13T09:21:38;100883.34;;;15.46;49.80
55757;BME280;41676;44.610;44.078;2023-10-13T09:26:41;100891.56;;;15.60;49.63
55757;BME280;41676;44.610;44.078;2023-10-13T09:31:42;100864.41;;;15.48;48.68
55757;BME280;41676;44.610;44.078;2023-10-13T09:36:46;100878.22;;;15.81;47.46
55757;BME280;41676;44.610;44.078;2023-10-13T09:41:48;100863.63;;;16.05;47.20
55757;BME280;41676;44.610;44.078;2023-10-13T09:46:54;100860.06;;;16.19;46.24
55757;BME280;41676;44.610;44.078;2023-10-13T09:52:03;100870.38;;;16.44;44.00
55757;BME280;41676;44.610;44.078;2023-10-13T09:57:12;100840.19;;;16.35;43.20
55757;BME280;41676;44.610;44.078;2023-10-13T10:02:19;100846.16;;;16.59;44.03
55757;BME280;41676;44.610;44.078;2023-10-13T10:07:27;100851.88;;;16.77;43.16
55757;BME280;41676;44.610;44.078;2023-10-13T10:12:59;100848.03;;;16.86;41.53
55757;BME280;41676;44.610;44.078;2023-10-13T10:18:03;100845.44;;;17.00;41.95
55757;BME280;41676;44.610;44.078;2023-10-13T10:23:05;100816.03;;;16.85;42.21
55757;BME280;41676;44.610;44.078;2023-10-13T10:28:10;100820.31;;;17.14;41.94
55757;BME280;41676;44.610;44.078;2023-10-13T10:33:16;100823.94;;;17.41;41.57
55757;BME280;41676;44.610;44.078;2023-10-13T10:38:19;100830.78;;;17.50;41.77
55757;BME280;41676;44.610;44.078;2023-10-13T10:43:37;100804.53;;;17.52;40.60
55757;BME280;41676;44.610;44.078;2023-10-13T10:48:47;100821.53;;;17.60;41.46
55757;BME280;41676;44.610;44.078;2023-10-13T10:53:58;100819.88;;;17.65;40.83
55757;BME280;41676;44.610;44.078;2023-10-13T10:59:11;100762.19;;;17.48;41.15
55757;BME280;41676;44.610;44.078;2023-10-13T11:04:25;100766.75;;;17.54;40.83
55757;BME280;41676;44.610;44.078;2023-10-13T11:09:35;100813.34;;;17.88;40.60
55757;BME280;41676;44.610;44.078;2023-10-13T11:14:46;100799.25;;;17.86;40.47
55757;BME280;41676;44.610;44.078;2023-10-13T11:19:51;100792.88;;;17.87;40.53
55757;BME280;41676;44.610;44.078;2023-10-13T11:24:52;100778.16;;;17.83;40.87
55757;BME280;41676;44.610;44.078;2023-10-13T11:29:54;100792.69;;;18.08;40.56
55757;BME280;41676;44.610;44.078;2023-10-13T11:34:58;100786.88;;;18.05;39.97
55757;BME280;41676;44.610;44.078;2023-10-13T11:39:58;100781.72;;;18.16;40.24
55757;BME280;41676;44.610;44.078;2023-10-13T11:44:59;100744.28;;;17.88;40.09
55757;BME280;41676;44.610;44.078;2023-10-13T11:50:20;100772.81;;;18.09;40.07
55757;BME280;41676;44.610;44.078;2023-10-13T11:55:33;100788.31;;;18.27;40.11
55757;BME280;41676;44.610;44.078;2023-10-13T12:00:33;100770.75;;;18.11;40.47
55757;BME280;41676;44.610;44.078;2023-10-13T12:06:01;100775.31;;;18.17;40.14
55757;BME280;41676;44.610;44.078;2023-10-13T12:11:21;100691.53;;;17.67;40.42
55757;BME280;41676;44.610;44.078;2023-10-13T12:16:31;100719.91;;;17.90;39.87
55757;BME280;41676;44.610;44.078;2023-10-13T12:21:34;100781.91;;;18.41;38.40
55757;BME280;41676;44.610;44.078;2023-10-13T12:26:37;100717.59;;;18.00;38.80
55757;BME280;41676;44.610;44.078;2023-10-13T12:31:42;100709.75;;;17.85;38.72
55757;BME280;41676;44.610;44.078;2023-10-13T12:36:51;100776.13;;;18.38;38.19
55757;BME280;41676;44.610;44.078;2023-10-13T12:42:06;100770.16;;;18.16;37.39
55757;BME280;41676;44.610;44.078;2023-10-13T12:47:45;100766.63;;;18.09;37.74
55757;BME280;41676;44.610;44.078;2023-10-13T12:53:04;100766.81;;;18.00;38.08
55757;BME280;41676;44.610;44.078;2023-10-13T12:58:05;100757.53;;;17.83;37.81
55757;BME280;41676;44.610;44.078;2023-10-13T13:03:06;100789.38;;;17.99;37.85
55757;BME280;41676;44.610;44.078;2023-10-13T13:08:11;100780.66;;;17.84;38.23
55757;BME280;41676;44.610;44.078;2023-10-13T13:13:19;100792.06;;;17.86;38.25
55757;BME280;41676;44.610;44.078;2023-10-13T13:18:25;100797.63;;;17.78;38.55
55757;BME280;41676;44.610;44.078;2023-10-13T13:23:26;100787.66;;;17.65;38.67
55757;BME280;41676;44.610;44.078;2023-10-13T13:28:27;100776.44;;;17.42;38.86
55757;BME280;41676;44.610;44.078;2023-10-13T13:33:29;100773.91;;;17.27;39.21
55757;BME280;41676;44.610;44.078;2023-10-13T13:38:33;100777.75;;;17.11;39.38
55757;BME280;41676;44.610;44.078;2023-10-13T13:43:34;100788.06;;;17.07;39.75
55757;BME280;41676;44.610;44.078;2023-10-13T13:48:39;100783.59;;;16.80;40.60
55757;BME280;41676;44.610;44.078;2023-10-13T13:53:42;100797.47;;;16.62;40.88
55757;BME280;41676;44.610;44.078;2023-10-13T13:58:49;100813.63;;;16.12;42.28
55757;BME280;41676;44.610;44.078;2023-10-13T14:03:53;100788.69;;;15.54;43.70
55757;BME280;41676;44.610;44.078;2023-10-13T14:08:58;100786.31;;;15.08;45.07
55757;BME280;41676;44.610;44.078;2023-10-13T14:14:33;100744.31;;;14.34;46.85
55757;BME280;41676;44.610;44.078;2023-10-13T14:19:35;100802.63;;;14.16;48.63
55757;BME280;41676;44.610;44.078;2023-10-13T14:24:40;100816.94;;;13.77;49.74
55757;BME280;41676;44.610;44.078;2023-10-13T14:29:48;100825.72;;;13.32;51.83
55757;BME280;41676;44.610;44.078;2023-10-13T14:34:53;100812.84;;;12.79;52.98
55757;BME280;41676;44.610;44.078;2023-10-13T14:39:55;100821.94;;;12.46;54.71
55757;BME280;41676;44.610;44.078;2023-10-13T14:45:00;100805.81;;;11.98;56.03
55757;BME280;41676;44.610;44.078;2023-10-13T14:50:01;100832.38;;;11.74;57.33
55757;BME280;41676;44.610;44.078;2023-10-13T14:55:04;100857.44;;;11.55;58.34
55757;BME280;41676;44.610;44.078;2023-10-13T15:00:08;100849.34;;;11.30;59.70
55757;BME280;41676;44.610;44.078;2023-10-13T15:05:13;100838.22;;;10.92;60.55
55757;BME280;41676;44.610;44.078;2023-10-13T15:10:16;100867.97;;;10.70;61.55
55757;BME280;41676;44.610;44.078;2023-10-13T15:15:17;100877.00;;;10.33;62.52
55757;BME280;41676;44.610;44.078;2023-10-13T15:20:19;100876.59;;;10.10;63.32
55757;BME280;41676;44.610;44.078;2023-10-13T15:25:20;100900.28;;;10.03;64.23
55757;BME280;41676;44.610;44.078;2023-10-13T15:30:30;100836.41;;;9.51;65.02
55757;BME280;41676;44.610;44.078;2023-10-13T15:35:52;100903.41;;;9.71;65.17
55757;BME280;41676;44.610;44.078;2023-10-13T15:40:54;100799.84;;;8.90;66.14
55757;BME280;41676;44.610;44.078;2023-10-13T15:45:54;100826.31;;;9.00;66.54
55757;BME280;41676;44.610;44.078;2023-10-13T15:50:57;100899.59;;;9.28;67.22
55757;BME280;41676;44.610;44.078;2023-10-13T15:55:58;100904.81;;;9.10;67.54
55757;BME280;41676;44.610;44.078;2023-10-13T16:00:59;100899.16;;;8.76;67.91
55757;BME280;41676;44.610;44.078;2023-10-13T16:06:03;100900.59;;;8.71;70.09
55757;BME280;41676;44.610;44.078;2023-10-13T16:11:12;100904.34;;;8.58;69.77
55757;BME280;41676;44.610;44.078;2023-10-13T16:16:15;100918.31;;;8.51;69.77
55757;BME280;41676;44.610;44.078;2023-10-13T16:21:16;100783.47;;;7.52;69.99
55757;BME280;41676;44.610;44.078;2023-10-13T16:26:17;100916.63;;;8.20;70.35
55757;BME280;41676;44.610;44.078;2023-10-13T16:31:22;100850.56;;;7.70;70.75
55757;BME280;41676;44.610;44.078;2023-10-13T16:36:23;100870.31;;;7.66;71.72
55757;BME280;41676;44.610;44.078;2023-10-13T16:41:25;100869.16;;;7.49;72.31
55757;BME280;41676;44.610;44.078;2023-10-13T16:46:27;100853.56;;;7.37;73.29
55757;BME280;41676;44.610;44.078;2023-10-13T16:51:28;100920.84;;;7.63;73.19
55757;BME280;41676;44.610;44.078;2023-10-13T16:56:29;100854.72;;;7.13;73.82
55757;BME280;41676;44.610;44.078;2023-10-13T17:01:30;100927.47;;;7.48;74.60
55757;BME280;41676;44.610;44.078;2023-10-13T17:06:31;100910.53;;;7.29;75.20
55757;BME280;41676;44.610;44.078;2023-10-13T17:11:32;100890.50;;;6.96;75.22
55757;BME280;41676;44.610;44.078;2023-10-13T17:16:32;100908.63;;;7.01;75.50
55757;BME280;41676;44.610;44.078;2023-10-13T17:21:33;100945.78;;;7.09;76.24
55757;BME280;41676;44.610;44.078;2023-10-13T17:26:34;100931.81;;;6.97;76.22
55757;BME280;41676;44.610;44.078;2023-10-13T17:31:35;100911.53;;;6.77;76.92
55757;BME280;41676;44.610;44.078;2023-10-13T17:36:36;100945.88;;;6.77;77.55
55757;BME280;41676;44.610;44.078;2023-10-13T17:41:38;100949.06;;;6.59;77.61
55757;BME280;41676;44.610;44.078;2023-10-13T17:46:39;100937.97;;;6.45;77.75
55757;BME280;41676;44.610;44.078;2023-10-13T17:51:40;100918.38;;;6.26;77.83
55757;BME280;41676;44.610;44.078;2023-10-13T17:56:43;100893.03;;;5.91;78.33
55757;BME280;41676;44.610;44.078;2023-10-13T18:01:44;100940.94;;;6.19;78.21
55757;BME280;41676;44.610;44.078;2023-10-13T18:06:49;100954.03;;;6.09;79.11
55757;BME280;41676;44.610;44.078;2023-10-13T18:11:53;100946.03;;;6.00;79.11
55757;BME280;41676;44.610;44.078;2023-10-13T18:16:55;100941.59;;;5.89;79.37
55757;BME280;41676;44.610;44.078;2023-10-13T18:21:55;100946.03;;;5.77;80.10
55757;BME280;41676;44.610;44.078;2023-10-13T18:26:59;100935.28;;;5.69;80.58
55757;BME280;41676;44.610;44.078;2023-10-13T18:32:00;100924.16;;;5.54;80.40
55757;BME280;41676;44.610;44.078;2023-10-13T18:37:02;100938.16;;;5.55;80.77
55757;BME280;41676;44.610;44.078;2023-10-13T18:42:03;100920.22;;;5.48;80.64
55757;BME280;41676;44.610;44.078;2023-10-13T18:47:05;100937.34;;;5.54;80.52
55757;BME280;41676;44.610;44.078;2023-10-13T18:52:09;100906.19;;;5.25;80.50
55757;BME280;41676;44.610;44.078;2023-10-13T18:57:10;100855.78;;;4.96;80.71
55757;BME280;41676;44.610;44.078;2023-10-13T19:02:14;100922.34;;;5.43;80.82
55757;BME280;41676;44.610;44.078;2023-10-13T19:07:15;100944.75;;;5.60;81.11
55757;BME280;41676;44.610;44.078;2023-10-13T19:12:15;100952.06;;;5.57;81.10
55757;BME280;41676;44.610;44.078;2023-10-13T19:17:22;100935.28;;;5.35;81.63
55757;BME280;41676;44.610;44.078;2023-10-13T19:22:24;100950.25;;;5.35;82.17
55757;BME280;41676;44.610;44.078;2023-10-13T19:27:25;100928.94;;;5.04;81.66
55757;BME280;41676;44.610;44.078;2023-10-13T19:32:26;100934.78;;;4.96;81.71
55757;BME280;41676;44.610;44.078;2023-10-13T19:37:28;100927.81;;;4.84;81.47
55757;BME280;41676;44.610;44.078;2023-10-13T19:42:29;100921.91;;;4.69;81.72
55757;BME280;41676;44.610;44.078;2023-10-13T19:47:30;100945.00;;;4.66;82.44
55757;BME280;41676;44.610;44.078;2023-10-13T19:52:31;100940.09;;;4.72;82.91
55757;BME280;41676;44.610;44.078;2023-10-13T19:57:32;100953.41;;;4.71;83.00
55757;BME280;41676;44.610;44.078;2023-10-13T20:02:35;100952.38;;;4.61;82.78
55757;BME280;41676;44.610;44.078;2023-10-13T20:07:39;100932.38;;;4.47;83.49
55757;BME280;41676;44.610;44.078;2023-10-13T20:12:41;100901.09;;;4.20;83.07
55757;BME280;41676;44.610;44.078;2023-10-13T20:17:45;100836.94;;;3.74;83.69
55757;BME280;41676;44.610;44.078;2023-10-13T20:22:46;100955.13;;;4.24;84.67
55757;BME280;41676;44.610;44.078;2023-10-13T20:27:48;100973.59;;;4.35;84.36
55757;BME280;41676;44.610;44.078;2023-10-13T20:32:48;100979.59;;;4.37;84.52
55757;BME280;41676;44.610;44.078;2023-10-13T20:37:49;100965.13;;;4.19;84.16
55757;BME280;41676;44.610;44.078;2023-10-13T20:42:52;100980.34;;;4.02;84.47
55757;BME280;41676;44.610;44.078;2023-10-13T20:48:00;100983.84;;;3.90;83.97
55757;BME280;41676;44.610;44.078;2023-10-13T20:53:00;100964.75;;;3.75;84.50
55757;BME280;41676;44.610;44.078;2023-10-13T20:58:02;100951.66;;;3.62;84.89
55757;BME280;41676;44.610;44.078;2023-10-13T21:03:03;100905.06;;;3.15;84.72
55757;BME280;41676;44.610;44.078;2023-10-13T21:08:07;100971.34;;;3.44;84.26
55757;BME280;41676;44.610;44.078;2023-10-13T21:13:08;100973.22;;;3.42;85.27
55757;BME280;41676;44.610;44.078;2023-10-13T21:18:12;100967.97;;;3.42;85.98
55757;BME280;41676;44.610;44.078;2023-10-13T21:23:12;100980.34;;;3.53;85.94
55757;BME280;41676;44.610;44.078;2023-10-13T21:28:13;100979.63;;;3.51;85.39
55757;BME280;41676;44.610;44.078;2023-10-13T21:33:14;100922.09;;;3.09;85.73
55757;BME280;41676;44.610;44.078;2023-10-13T21:38:15;100984.34;;;3.33;85.33
55757;BME280;41676;44.610;44.078;2023-10-13T21:43:16;100983.00;;;3.14;85.02
55757;BME280;41676;44.610;44.078;2023-10-13T21:48:17;100983.28;;;3.23;85.20
55757;BME280;41676;44.610;44.078;2023-10-13T21:53:18;100983.50;;;3.19;85.72
55757;BME280;41676;44.610;44.078;2023-10-13T21:58:20;100990.22;;;3.11;85.28
55757;BME280;41676;44.610;44.078;2023-10-13T22:03:22;100993.25;;;2.92;84.99
55757;BME280;41676;44.610;44.078;2023-10-13T22:08:24;101003.66;;;2.93;85.55
55757;BME280;41676;44.610;44.078;2023-10-13T22:13:25;101000.28;;;2.91;85.46
55757;BME280;41676;44.610;44.078;2023-10-13T22:18:26;100939.78;;;2.55;85.18
55757;BME280;41676;44.610;44.078;2023-10-13T22:23:26;101016.69;;;3.08;84.96
55757;BME280;41676;44.610;44.078;2023-10-13T22:28:27;100946.91;;;2.65;85.12
55757;BME280;41676;44.610;44.078;2023-10-13T22:33:28;100989.78;;;2.79;85.08
55757;BME280;41676;44.610;44.078;2023-10-13T22:38:29;101006.56;;;2.89;85.18
55757;BME280;41676;44.610;44.078;2023-10-13T22:43:30;101021.50;;;2.88;84.64
55757;BME280;41676;44.610;44.078;2023-10-13T22:48:31;101021.97;;;2.81;85.17
55757;BME280;41676;44.610;44.078;2023-10-13T22:53:34;101017.34;;;2.71;84.89
55757;BME280;41676;44.610;44.078;2023-10-13T22:58:35;100961.91;;;2.23;85.43
55757;BME280;41676;44.610;44.078;2023-10-13T23:03:37;100961.03;;;2.10;85.38
55757;BME280;41676;44.610;44.078;2023-10-13T23:08:42;100912.84;;;1.71;85.38
55757;BME280;41676;44.610;44.078;2023-10-13T23:13:45;101017.31;;;2.32;85.50
55757;BME280;41676;44.610;44.078;2023-10-13T23:18:46;101014.34;;;2.23;85.78
55757;BME280;41676;44.610;44.078;2023-10-13T23:23:48;100991.06;;;2.19;85.68
55757;BME280;41676;44.610;44.078;2023-10-13T23:28:50;101022.97;;;2.25;85.36
55757;BME280;41676;44.610;44.078;2023-10-13T23:33:53;101025.22;;;2.44;87.11
55757;BME280;41676;44.610;44.078;2023-10-13T23:38:54;101024.00;;;2.23;85.02
55757;BME280;41676;44.610;44.078;2023-10-13T23:44:09;101028.97;;;2.13;85.13
55757;BME280;41676;44.610;44.078;2023-10-13T23:49:17;101020.94;;;2.02;84.72
55757;BME280;41676;44.610;44.078;2023-10-13T23:54:19;101033.66;;;2.08;85.70
55757;BME280;41676;44.610;44.078;2023-10-13T23:59:20;101026.56;;;1.96;85.30
